Terminal Aerodrome Forecast
Issued by NWS

Home | Current Version | Previous Version | Text Only | Print | Product List | Glossary On
Versions: 1 2 3 4 5 6 7 8 9 10 11 12 13 14 15 16 17 18
000
FTUS45 KSLC 231727
TAF36U
TAF
K36U 231727Z 2318/2418 VRB04KT P6SM SCT120
     FM232000 25007KT P6SM SCT100 SCT120
     FM240300 VRB04KT P6SM SCT100 BKN120=

USA.gov is the U.S. government's official web portal to all federal, state and local government web resources and services.